createdAt,value
2018-07-21T00:02:22.604Z,98004.73
2018-07-21T00:04:50.011Z,98001.56
2018-07-21T00:07:17.253Z,98005.52
2018-07-21T00:09:44.525Z,98007.33
2018-07-21T00:12:11.804Z,97996.70
2018-07-21T00:14:39.059Z,97998.22
2018-07-21T00:19:56.439Z,98006.95
2018-07-21T00:22:23.752Z,98007.44
2018-07-21T00:24:50.994Z,98001.97
2018-07-21T00:27:18.203Z,98001.01
2018-07-21T00:29:45.919Z,97995.41
2018-07-21T00:32:13.905Z,97990.47
2018-07-21T00:34:41.167Z,97994.66
2018-07-21T00:37:08.428Z,97995.52
2018-07-21T00:39:37.534Z,97992.88
2018-07-21T00:42:04.895Z,97994.23
2018-07-21T00:44:32.789Z,97988.63
2018-07-21T00:47:00.058Z,97992.88
2018-07-21T00:49:27.333Z,97996.39
2018-07-21T00:51:54.609Z,97997.34
2018-07-21T00:54:21.918Z,97997.45
2018-07-21T00:56:49.207Z,98001.52
2018-07-21T00:59:16.496Z,98005.13
2018-07-21T01:01:44.055Z,98001.44
2018-07-21T01:04:11.383Z,98005.05
2018-07-21T01:06:38.749Z,98005.90
2018-07-21T01:09:07.647Z,98006.15
2018-07-21T01:11:34.924Z,98008.45
2018-07-21T01:14:02.186Z,98010.14
2018-07-21T01:16:29.506Z,98005.42
2018-07-21T01:18:56.751Z,98005.70
2018-07-21T01:21:24.031Z,97996.32
2018-07-21T01:23:51.291Z,97996.63
2018-07-21T01:26:18.606Z,97994.76
2018-07-21T01:28:45.854Z,97992.27
2018-07-21T01:31:13.125Z,97986.94
2018-07-21T01:33:40.353Z,97980.47
2018-07-21T01:36:07.622Z,97982.57
2018-07-21T01:38:34.886Z,97988.16
2018-07-21T01:41:02.210Z,97992.62
2018-07-21T01:43:29.454Z,97985.23
2018-07-21T01:45:56.793Z,97990.33
2018-07-21T01:48:24.047Z,97990.42
2018-07-21T01:50:51.307Z,97996.92
2018-07-21T01:53:18.547Z,97994.34
2018-07-21T01:55:45.872Z,97988.25
2018-07-21T01:58:13.449Z,97991.00
2018-07-21T02:00:41.218Z,97990.74
2018-07-21T02:03:08.487Z,97994.44
2018-07-21T02:05:35.798Z,97989.34
2018-07-21T02:08:03.045Z,97993.33
2018-07-21T02:10:30.275Z,97984.57
2018-07-21T02:12:57.607Z,97989.03
2018-07-21T02:15:24.879Z,97980.41
2018-07-21T02:17:52.134Z,97979.80
2018-07-21T02:20:19.370Z,97979.62
2018-07-21T02:22:46.654Z,97976.74
2018-07-21T02:25:13.855Z,97982.97
2018-07-21T02:27:41.201Z,97979.14
2018-07-21T02:30:08.426Z,97975.70
2018-07-21T02:32:35.682Z,97980.77
2018-07-21T02:35:02.944Z,97984.64
2018-07-21T02:37:30.232Z,97993.64
2018-07-21T02:39:57.458Z,97986.25
2018-07-21T02:42:24.730Z,97983.45
2018-07-21T02:44:52.206Z,97981.37
2018-07-21T02:47:19.501Z,97981.98
2018-07-21T02:49:46.780Z,97977.73
2018-07-21T02:52:14.030Z,97973.24
2018-07-21T02:54:41.314Z,97971.45
2018-07-21T02:57:08.593Z,97971.86
2018-07-21T02:59:35.903Z,97983.05
2018-07-21T03:02:03.226Z,97973.98
2018-07-21T03:04:30.463Z,97968.88
2018-07-21T03:06:57.817Z,97970.98
2018-07-21T03:09:25.194Z,97967.26
2018-07-21T03:11:52.575Z,97965.48
2018-07-21T03:14:20.485Z,97963.14
2018-07-21T03:16:48.703Z,97962.30
2018-07-21T03:19:17.437Z,97958.98
2018-07-21T03:21:45.932Z,97953.03
2018-07-21T03:24:14.576Z,97953.88
2018-07-21T03:26:42.570Z,97947.78
2018-07-21T03:29:10.026Z,97945.81
2018-07-21T03:31:37.383Z,97951.60
2018-07-21T03:34:04.888Z,97941.73
2018-07-21T03:36:32.312Z,97944.59
2018-07-21T03:38:59.729Z,97941.36
2018-07-21T03:41:27.453Z,97948.38
2018-07-21T03:43:55.461Z,97958.52
2018-07-21T03:46:22.770Z,97952.08
2018-07-21T03:48:50.113Z,97952.92
2018-07-21T03:51:18.052Z,97958.80
2018-07-21T03:53:45.421Z,97958.27
2018-07-21T03:56:12.723Z,97951.80
2018-07-21T03:58:40.068Z,97961.69
2018-07-21T04:01:07.362Z,97956.55
2018-07-21T04:03:34.923Z,97960.58
2018-07-21T04:06:02.288Z,97959.84
2018-07-21T04:08:29.741Z,97957.09
2018-07-21T04:10:58.205Z,97940.83
2018-07-21T04:13:25.570Z,97945.03
2018-07-21T04:15:53.128Z,97935.04
2018-07-21T04:18:21.438Z,97941.14
2018-07-21T04:20:48.775Z,97933.91
2018-07-21T04:23:16.168Z,97938.76
2018-07-21T04:25:44.256Z,97923.38
2018-07-21T04:28:11.625Z,97921.09
2018-07-21T04:30:38.983Z,97923.17
2018-07-21T04:33:06.959Z,97926.42
2018-07-21T04:35:34.300Z,97926.79
2018-07-21T04:38:01.880Z,97937.91
2018-07-21T04:40:29.200Z,97934.19
2018-07-21T04:42:56.575Z,97928.29
2018-07-21T04:45:23.960Z,97929.45
2018-07-21T04:47:51.293Z,97930.67
2018-07-21T04:50:18.602Z,97929.08
2018-07-21T04:52:46.079Z,97931.73
2018-07-21T04:55:13.590Z,97933.23
2018-07-21T04:57:40.950Z,97934.19
2018-07-21T05:00:08.296Z,97933.80
2018-07-21T05:02:35.593Z,97933.67
2018-07-21T05:05:03.056Z,97937.48
2018-07-21T05:07:30.588Z,97936.77
2018-07-21T05:09:58.630Z,97940.02
2018-07-21T05:12:25.995Z,97940.35
2018-07-21T05:14:53.583Z,97938.13
2018-07-21T05:17:20.970Z,97928.94
2018-07-21T05:19:48.426Z,97925.73
2018-07-21T05:22:15.766Z,97933.95
2018-07-21T05:24:43.163Z,97934.95
2018-07-21T05:27:10.597Z,97939.18
2018-07-21T05:29:37.959Z,97936.84
2018-07-21T05:32:05.339Z,97944.58
2018-07-21T05:34:32.809Z,97938.94
2018-07-21T05:37:00.744Z,97948.70
2018-07-21T05:39:28.153Z,97943.56
2018-07-21T05:41:56.290Z,97948.47
2018-07-21T05:44:24.243Z,97951.20
2018-07-21T05:46:51.581Z,97952.54
2018-07-21T05:49:19.776Z,97958.02
2018-07-21T05:51:47.090Z,97946.57
2018-07-21T05:54:14.410Z,97948.47
2018-07-21T05:56:41.745Z,97952.05
2018-07-21T05:59:09.146Z,97950.99
2018-07-21T06:01:36.663Z,97953.11
2018-07-21T06:04:04.049Z,97948.09
2018-07-21T06:06:31.391Z,97940.42
2018-07-21T06:08:58.842Z,97942.80
2018-07-21T06:11:26.306Z,97936.11
2018-07-21T06:13:53.663Z,97936.23
2018-07-21T06:16:21.983Z,97929.73
2018-07-21T06:18:49.411Z,97931.78
2018-07-21T06:21:16.693Z,97936.78
2018-07-21T06:23:44.056Z,97933.88
2018-07-21T06:26:11.518Z,97940.45
2018-07-21T06:28:38.910Z,97945.33
2018-07-21T06:31:06.518Z,97940.63
2018-07-21T06:33:33.965Z,97943.79
2018-07-21T06:36:01.354Z,97939.67
2018-07-21T06:38:28.715Z,97944.61
2018-07-21T06:40:58.395Z,97946.33
2018-07-21T06:43:26.474Z,97942.42
2018-07-21T06:45:53.803Z,97937.59
2018-07-21T06:48:21.908Z,97938.44
2018-07-21T06:50:50.142Z,97940.56
2018-07-21T06:53:17.458Z,97941.20
2018-07-21T06:55:44.848Z,97937.93
2018-07-21T06:58:12.572Z,97939.02
2018-07-21T07:00:46.488Z,97932.06
2018-07-21T07:03:13.987Z,97925.41
2018-07-21T07:05:41.390Z,97928.95
2018-07-21T07:08:09.438Z,97931.47
2018-07-21T07:10:36.787Z,97935.91
2018-07-21T07:13:04.142Z,97938.05
2018-07-21T07:15:32.002Z,97944.54
2018-07-21T07:17:59.331Z,97945.50
2018-07-21T07:20:26.718Z,97948.81
2018-07-21T07:22:54.175Z,97940.30
2018-07-21T07:25:21.577Z,97945.19
2018-07-21T07:27:48.892Z,97945.02
2018-07-21T07:30:16.217Z,97952.66
2018-07-21T07:32:43.538Z,97951.55
2018-07-21T07:35:11.031Z,97956.45
2018-07-21T07:37:38.416Z,97961.19
2018-07-21T07:40:05.932Z,97952.33
2018-07-21T07:42:33.588Z,97946.66
2018-07-21T07:45:01.237Z,97951.44
2018-07-21T07:47:28.519Z,97949.36
2018-07-21T07:49:55.907Z,97954.38
2018-07-21T07:52:23.194Z,97947.18
2018-07-21T07:54:50.573Z,97952.56
2018-07-21T07:57:17.889Z,97953.94
2018-07-21T07:59:45.253Z,97950.03
2018-07-21T08:02:12.567Z,97956.44
2018-07-21T08:04:39.889Z,97954.03
2018-07-21T08:07:07.258Z,97962.78
2018-07-21T08:09:34.574Z,97964.08
2018-07-21T08:12:01.871Z,97971.33
2018-07-21T08:14:30.252Z,97969.55
2018-07-21T08:16:57.585Z,97961.04
2018-07-21T08:19:24.932Z,97974.32
2018-07-21T08:21:52.259Z,97976.89
2018-07-21T08:24:21.575Z,97975.97
2018-07-21T08:26:50.324Z,97973.56
2018-07-21T08:29:18.217Z,97971.33
2018-07-21T08:31:45.564Z,97977.06
2018-07-21T08:34:12.881Z,97977.06
2018-07-21T08:36:40.222Z,97982.41
2018-07-21T08:39:08.993Z,97977.61
2018-07-21T08:41:36.626Z,97987.89
2018-07-21T08:44:03.991Z,97980.27
2018-07-21T08:46:31.350Z,97978.66
2018-07-21T08:48:58.714Z,97979.25
2018-07-21T08:51:26.064Z,97979.94
2018-07-21T08:53:53.351Z,97973.92
2018-07-21T08:56:21.822Z,97985.44
2018-07-21T08:58:49.736Z,97973.81
2018-07-21T09:01:17.051Z,97972.22
2018-07-21T09:03:44.501Z,97976.34
2018-07-21T09:06:11.810Z,97983.56
2018-07-21T09:08:39.158Z,97975.48
2018-07-21T09:11:06.521Z,97973.37
2018-07-21T09:13:33.885Z,97981.67
2018-07-21T09:16:01.225Z,97986.31
2018-07-21T09:18:29.322Z,97988.10
2018-07-21T09:20:57.258Z,97991.17
2018-07-21T09:23:24.499Z,97990.34
2018-07-21T09:25:52.076Z,97991.14
2018-07-21T09:28:19.408Z,97990.83
2018-07-21T09:30:47.259Z,97992.34
2018-07-21T09:33:15.088Z,97996.52
2018-07-21T09:35:42.446Z,97997.45
2018-07-21T09:38:09.769Z,97993.98
2018-07-21T09:40:37.712Z,98000.78
2018-07-21T09:43:05.560Z,98001.77
2018-07-21T09:45:32.877Z,98004.73
2018-07-21T09:48:01.036Z,98005.31
2018-07-21T09:50:28.480Z,98007.11
2018-07-21T09:52:55.934Z,98009.86
2018-07-21T09:55:23.129Z,98004.37
2018-07-21T09:57:51.227Z,98004.80
2018-07-21T10:00:24.259Z,98007.17
2018-07-21T10:02:51.928Z,98010.70
2018-07-21T10:05:20.446Z,98012.18
2018-07-21T10:07:47.899Z,98012.15
2018-07-21T10:10:16.125Z,98022.30
2018-07-21T10:12:43.548Z,98025.61
2018-07-21T10:15:10.861Z,98026.59
2018-07-21T10:17:38.407Z,98029.73
2018-07-21T10:20:05.770Z,98033.19
2018-07-21T10:22:33.112Z,98033.57
2018-07-21T10:25:06.105Z,98035.94
2018-07-21T10:27:39.956Z,98044.70
2018-07-21T10:30:07.538Z,98043.97
2018-07-21T10:32:34.957Z,98050.92
2018-07-21T10:35:02.271Z,98049.12
2018-07-21T10:37:29.649Z,98053.86
2018-07-21T10:39:56.959Z,98056.52
2018-07-21T10:42:24.326Z,98056.48
2018-07-21T10:44:51.703Z,98066.55
2018-07-21T10:47:19.373Z,98062.77
2018-07-21T10:49:47.711Z,98067.89
2018-07-21T10:52:15.759Z,98063.97
2018-07-21T10:54:43.754Z,98066.27
2018-07-21T10:57:12.886Z,98060.62
2018-07-21T10:59:40.210Z,98066.55
2018-07-21T11:02:07.629Z,98076.62
2018-07-21T11:04:34.931Z,98069.39
2018-07-21T11:07:02.286Z,98074.55
2018-07-21T11:09:29.738Z,98071.02
2018-07-21T11:11:57.029Z,98077.70
2018-07-21T11:14:24.326Z,98075.83
2018-07-21T11:16:51.741Z,98078.48
2018-07-21T11:19:19.074Z,98084.33
2018-07-21T11:21:46.780Z,98091.33
2018-07-21T11:24:14.451Z,98085.45
2018-07-21T11:26:41.757Z,98085.09
2018-07-21T11:29:10.145Z,98090.52
2018-07-21T11:31:37.984Z,98087.63
2018-07-21T11:34:05.510Z,98087.31
2018-07-21T11:36:33.101Z,98091.48
2018-07-21T11:39:00.468Z,98084.75
2018-07-21T11:41:27.813Z,98092.25
2018-07-21T11:43:55.138Z,98090.67
2018-07-21T11:46:22.410Z,98086.52
2018-07-21T11:48:49.778Z,98100.06
2018-07-21T11:51:17.176Z,98100.72
2018-07-21T11:53:44.759Z,98103.19
2018-07-21T11:56:12.530Z,98105.91
2018-07-21T11:58:39.871Z,98112.88
2018-07-21T12:01:07.722Z,98120.78
2018-07-21T12:03:36.105Z,98115.64
2018-07-21T12:06:03.569Z,98120.86
2018-07-21T12:08:30.906Z,98121.98
2018-07-21T12:10:58.211Z,98128.05
2018-07-21T12:13:27.325Z,98121.90
2018-07-21T12:16:04.740Z,98124.16
2018-07-21T12:18:32.141Z,98122.08
2018-07-21T12:21:00.144Z,98126.12
2018-07-21T12:23:28.119Z,98131.85
2018-07-21T12:25:56.702Z,98128.32
2018-07-21T12:28:24.301Z,98127.34
2018-07-21T12:30:51.658Z,98124.81
2018-07-21T12:33:19.013Z,98133.33
2018-07-21T12:35:46.358Z,98131.60
2018-07-21T12:38:14.311Z,98132.13
2018-07-21T12:40:42.401Z,98133.33
2018-07-21T12:43:09.833Z,98139.31
2018-07-21T12:45:37.740Z,98141.66
2018-07-21T12:48:05.076Z,98147.98
2018-07-21T12:50:32.909Z,98154.20
2018-07-21T12:53:00.285Z,98150.77
2018-07-21T12:55:27.793Z,98151.75
2018-07-21T12:57:55.219Z,98151.46
2018-07-21T13:00:22.700Z,98153.98
2018-07-21T13:02:50.096Z,98158.73
2018-07-21T13:05:17.884Z,98162.32
2018-07-21T13:07:45.346Z,98163.50
2018-07-21T13:10:14.374Z,98162.09
2018-07-21T13:12:41.762Z,98154.23
2018-07-21T13:15:09.207Z,98161.52
2018-07-21T13:17:36.672Z,98164.03
2018-07-21T13:20:05.091Z,98164.31
2018-07-21T13:22:33.374Z,98168.89
2018-07-21T13:25:00.769Z,98168.52
2018-07-21T13:27:28.078Z,98169.93
2018-07-21T13:29:55.559Z,98166.72
2018-07-21T13:32:22.895Z,98167.70
2018-07-21T13:34:50.805Z,98171.94
2018-07-21T13:37:18.194Z,98169.14
2018-07-21T13:39:46.317Z,98168.91
2018-07-21T13:42:13.779Z,98176.20
2018-07-21T13:44:41.178Z,98174.38
2018-07-21T13:47:08.553Z,98171.88
2018-07-21T13:49:36.078Z,98171.20
2018-07-21T13:52:04.135Z,98168.94
2018-07-21T13:54:31.404Z,98157.92
2018-07-21T13:56:59.009Z,98165.82
2018-07-21T13:59:26.410Z,98156.70
2018-07-21T14:01:53.823Z,98164.72
2018-07-21T14:04:21.186Z,98160.55
2018-07-21T14:06:49.169Z,98162.78
2018-07-21T14:09:16.648Z,98164.23
2018-07-21T14:11:43.993Z,98168.05
2018-07-21T14:14:11.393Z,98160.59
2018-07-21T14:16:38.738Z,98168.17
2018-07-21T14:19:06.314Z,98167.44
2018-07-21T14:21:33.635Z,98172.31
2018-07-21T14:24:01.184Z,98176.93
2018-07-21T14:26:28.444Z,98170.73
2018-07-21T14:28:55.875Z,98171.37
2018-07-21T14:31:23.579Z,98163.27
2018-07-21T14:33:51.880Z,98163.19
2018-07-21T14:36:19.436Z,98159.78
2018-07-21T14:38:46.794Z,98165.50
2018-07-21T14:41:14.108Z,98158.81
2018-07-21T14:43:41.510Z,98163.95
2018-07-21T14:46:09.426Z,98165.17
2018-07-21T14:48:36.851Z,98164.53
2018-07-21T14:51:04.263Z,98165.62
2018-07-21T14:53:31.979Z,98164.77
2018-07-21T14:55:59.330Z,98167.69
2018-07-21T14:58:26.683Z,98161.69
2018-07-21T15:00:54.125Z,98164.84
2018-07-21T15:03:21.694Z,98158.53
2018-07-21T15:05:49.082Z,98161.20
2018-07-21T15:08:16.441Z,98157.19
2018-07-21T15:10:43.862Z,98157.42
2018-07-21T15:13:11.907Z,98150.82
2018-07-21T15:15:39.482Z,98146.64
2018-07-21T15:18:06.860Z,98149.64
2018-07-21T15:20:35.042Z,98154.56
2018-07-21T15:23:02.651Z,98154.13
2018-07-21T15:25:30.048Z,98152.12
2018-07-21T15:27:57.384Z,98154.42
2018-07-21T15:30:24.741Z,98148.77
2018-07-21T15:32:52.227Z,98143.44
2018-07-21T15:35:19.607Z,98145.14
2018-07-21T15:37:47.012Z,98141.53
2018-07-21T15:40:14.397Z,98144.09
2018-07-21T15:42:41.738Z,98136.09
2018-07-21T15:45:09.728Z,98135.58
2018-07-21T15:47:37.107Z,98137.48
2018-07-21T15:50:04.691Z,98138.45
2018-07-21T15:52:32.092Z,98129.84
2018-07-21T15:54:59.490Z,98130.67
2018-07-21T15:57:27.652Z,98127.77
2018-07-21T15:59:55.050Z,98122.42
2018-07-21T16:02:22.472Z,98115.55
2018-07-21T16:04:49.880Z,98113.61
2018-07-21T16:07:17.343Z,98114.78
2018-07-21T16:09:45.127Z,98111.00
2018-07-21T16:12:12.512Z,98109.66
2018-07-21T16:14:39.995Z,98110.20
2018-07-21T16:17:07.304Z,98111.63
2018-07-21T16:19:34.644Z,98116.90
2018-07-21T16:22:02.024Z,98111.44
2018-07-21T16:24:29.354Z,98104.57
2018-07-21T16:26:56.753Z,98101.28
2018-07-21T16:29:24.170Z,98098.56
2018-07-21T16:31:52.255Z,98104.50
2018-07-21T16:34:20.934Z,98101.09
2018-07-21T16:36:48.326Z,98101.95
2018-07-21T16:39:16.151Z,98100.55
2018-07-21T16:41:43.522Z,98104.16
2018-07-21T16:44:11.376Z,98102.98
2018-07-21T16:46:39.102Z,98105.89
2018-07-21T16:49:06.480Z,98102.25
2018-07-21T16:51:34.018Z,98094.31
2018-07-21T16:54:01.449Z,98101.78
2018-07-21T16:56:29.611Z,98100.36
2018-07-21T16:58:57.246Z,98102.67
2018-07-21T17:01:24.565Z,98097.33
2018-07-21T17:03:52.257Z,98096.19
2018-07-21T17:06:19.762Z,98093.52
2018-07-21T17:08:48.216Z,98093.80
2018-07-21T17:11:15.597Z,98095.08
2018-07-21T17:13:43.006Z,98101.27
2018-07-21T17:16:10.396Z,98099.31
2018-07-21T17:18:38.798Z,98106.55
2018-07-21T17:21:06.156Z,98103.40
2018-07-21T17:23:33.813Z,98110.95
2018-07-21T17:26:01.242Z,98118.70
2018-07-21T17:28:28.584Z,98112.88
2018-07-21T17:30:56.966Z,98116.56
2018-07-21T17:33:24.387Z,98115.34
2018-07-21T17:35:52.776Z,98115.88
2018-07-21T17:38:21.395Z,98115.39
2018-07-21T17:40:49.236Z,98114.91
2018-07-21T17:43:16.678Z,98114.72
2018-07-21T17:45:44.380Z,98113.87
2018-07-21T17:48:11.742Z,98113.02
2018-07-21T17:50:39.306Z,98109.01
2018-07-21T17:53:07.167Z,98113.46
2018-07-21T17:55:35.011Z,98108.13
2018-07-21T17:58:03.303Z,98112.05
2018-07-21T18:00:30.745Z,98110.91
2018-07-21T18:02:58.350Z,98107.50
2018-07-21T18:05:26.515Z,98112.14
2018-07-21T18:07:53.719Z,98112.44
2018-07-21T18:10:21.721Z,98108.63
2018-07-21T18:12:49.219Z,98106.36
2018-07-21T18:15:16.554Z,98114.92
2018-07-21T18:17:43.961Z,98117.92
2018-07-21T18:20:11.331Z,98118.48
2018-07-21T18:22:38.711Z,98111.92
2018-07-21T18:25:06.135Z,98114.81
2018-07-21T18:27:33.465Z,98110.22
2018-07-21T18:30:01.684Z,98106.41
2018-07-21T18:32:30.378Z,98110.55
2018-07-21T18:34:58.000Z,98115.74
2018-07-21T18:37:25.542Z,98117.59
2018-07-21T18:39:53.261Z,98113.63
2018-07-21T18:42:21.801Z,98121.91
2018-07-21T18:44:49.473Z,98133.02
2018-07-21T18:47:18.971Z,98128.08
2018-07-21T18:49:47.849Z,98128.84
2018-07-21T18:52:15.478Z,98130.66
2018-07-21T18:54:44.442Z,98127.78
2018-07-21T18:57:12.511Z,98131.70
2018-07-21T18:59:40.105Z,98124.11
2018-07-21T19:02:07.708Z,98126.17
2018-07-21T19:04:36.910Z,98125.43
2018-07-21T19:07:06.146Z,98125.05
2018-07-21T19:09:33.866Z,98126.20
2018-07-21T19:12:07.050Z,98129.64
2018-07-21T19:14:34.941Z,98126.66
2018-07-21T19:17:05.965Z,98128.66
2018-07-21T19:19:39.443Z,98131.61
2018-07-21T19:22:08.684Z,98126.67
2018-07-21T19:24:37.085Z,98124.70
2018-07-21T19:27:10.743Z,98126.99
2018-07-21T19:29:38.147Z,98130.91
2018-07-21T19:32:11.331Z,98135.38
2018-07-21T19:34:39.624Z,98130.33
2018-07-21T19:38:10.934Z,98134.54
2018-07-21T19:40:38.298Z,98128.94
2018-07-21T19:43:05.940Z,98127.78
2018-07-21T19:45:33.515Z,98133.59
2018-07-21T19:48:00.893Z,98131.24
2018-07-21T19:50:28.266Z,98140.95
2018-07-21T19:52:56.384Z,98148.67
2018-07-21T19:55:23.804Z,98149.16
2018-07-21T19:57:51.885Z,98150.70
2018-07-21T20:00:19.475Z,98153.16
2018-07-21T20:02:47.529Z,98147.08
2018-07-21T20:05:15.233Z,98142.33
2018-07-21T20:07:42.936Z,98147.93
2018-07-21T20:10:10.394Z,98143.08
2018-07-21T20:12:37.905Z,98154.86
2018-07-21T20:15:05.298Z,98148.41
2018-07-21T20:17:32.999Z,98151.82
2018-07-21T20:20:00.452Z,98153.73
2018-07-21T20:22:27.729Z,98158.20
2018-07-21T20:24:55.298Z,98161.67
2018-07-21T20:27:23.561Z,98163.30
2018-07-21T20:29:51.018Z,98162.35
2018-07-21T20:32:18.485Z,98164.16
2018-07-21T20:34:45.744Z,98163.78
2018-07-21T20:37:12.971Z,98154.63
2018-07-21T20:39:40.300Z,98160.71
2018-07-21T20:42:07.581Z,98158.83
2018-07-21T20:44:34.891Z,98162.87
2018-07-21T20:47:02.162Z,98160.58
2018-07-21T20:49:29.827Z,98162.87
2018-07-21T20:51:57.189Z,98170.66
2018-07-21T20:54:24.512Z,98169.70
2018-07-21T20:56:51.837Z,98164.66
2018-07-21T20:59:19.840Z,98169.13
2018-07-21T21:01:47.360Z,98166.94
2018-07-21T21:04:14.746Z,98170.35
2018-07-21T21:06:42.097Z,98170.28
2018-07-21T21:09:10.601Z,98165.34
2018-07-21T21:11:38.148Z,98168.38
2018-07-21T21:14:05.460Z,98172.27
2018-07-21T21:16:32.723Z,98174.45
2018-07-21T21:19:00.017Z,98175.98
2018-07-21T21:21:27.248Z,98170.75
2018-07-21T21:23:54.542Z,98159.62
2018-07-21T21:26:22.418Z,98164.75
2018-07-21T21:28:49.670Z,98165.33
2018-07-21T21:31:16.886Z,98168.17
2018-07-21T21:33:44.171Z,98168.95
2018-07-21T21:36:11.460Z,98173.12
2018-07-21T21:38:38.775Z,98177.01
2018-07-21T21:41:06.033Z,98173.02
2018-07-21T21:43:33.324Z,98173.59
2018-07-21T21:46:00.621Z,98169.52
2018-07-21T21:48:27.940Z,98169.52
2018-07-21T21:50:55.259Z,98173.27
2018-07-21T21:53:22.533Z,98168.16
2018-07-21T21:55:49.849Z,98165.87
2018-07-21T21:58:17.249Z,98163.01
2018-07-21T22:01:05.555Z,98168.57
2018-07-21T22:03:33.644Z,98167.23
2018-07-21T22:06:01.119Z,98165.53
2018-07-21T22:08:29.153Z,98165.53
2018-07-21T22:10:56.486Z,98167.85
2018-07-21T22:13:23.921Z,98160.34
2018-07-21T22:15:51.677Z,98159.20
2018-07-21T22:18:19.134Z,98159.20
2018-07-21T22:20:46.467Z,98156.54
2018-07-21T22:23:13.743Z,98161.88
2018-07-21T22:25:41.149Z,98167.58
2018-07-21T22:28:08.446Z,98163.95
2018-07-21T22:30:35.781Z,98170.23
2018-07-21T22:33:03.500Z,98169.96
2018-07-21T22:35:32.052Z,98171.94
2018-07-21T22:37:59.671Z,98176.29
2018-07-21T22:40:27.295Z,98180.11
2018-07-21T22:42:54.587Z,98187.81
2018-07-21T22:45:21.897Z,98202.13
2018-07-21T22:47:49.157Z,98208.98
2018-07-21T22:50:16.491Z,98205.72
2018-07-21T22:52:43.945Z,98210.48
2018-07-21T22:55:11.345Z,98206.11
2018-07-21T22:57:38.854Z,98210.27
2018-07-21T23:00:06.971Z,98208.94
2018-07-21T23:02:34.486Z,98210.64
2018-07-21T23:05:01.733Z,98215.42
2018-07-21T23:07:28.993Z,98212.57
2018-07-21T23:09:56.315Z,98206.11
2018-07-21T23:12:23.584Z,98213.68
2018-07-21T23:14:51.010Z,98203.99
2018-07-21T23:17:18.288Z,98207.12
2018-07-21T23:19:45.521Z,98217.48
2018-07-21T23:22:12.758Z,98208.91
2018-07-21T23:24:40.002Z,98206.22
2018-07-21T23:27:07.264Z,98207.36
2018-07-21T23:29:34.523Z,98205.65
2018-07-21T23:32:01.992Z,98203.15
2018-07-21T23:34:29.228Z,98195.74
2018-07-21T23:36:56.629Z,98197.92
2018-07-21T23:39:23.863Z,98198.88
2018-07-21T23:41:51.350Z,98196.02
2018-07-21T23:44:18.717Z,98193.23
2018-07-21T23:46:46.010Z,98195.52
2018-07-21T23:49:13.242Z,98200.93
2018-07-21T23:51:40.512Z,98196.09
2018-07-21T23:54:08.146Z,98200.04
2018-07-21T23:56:35.539Z,98193.41
2018-07-21T23:59:03.262Z,98200.92
